Time;durP1;ratioP1;P1;durP2;ratioP2;P2;SDS_P1;SDS_P2;PMS_P1;PMS_P2;Temp;Humidity;BMP_temperature;BMP_pressure;BME280_temperature;BME280_humidity;BME280_pressure;Samples;Min_cycle;Max_cycle;Signal;HPM_P1;HPM_P2
2021/12/06 00:02:08;;;;;;;17.52;15.30;;;;;;;4.27;100.00;101064.25;5258254;28;20067;-70
2021/12/06 00:04:40;;;;;;;21.65;15.95;;;;;;;4.19;100.00;101061.25;5240762;28;20069;-70
2021/12/06 00:07:16;;;;;;;20.70;16.38;;;;;;;4.26;100.00;101062.59;5240958;28;20076;-70
2021/12/06 00:09:47;;;;;;;20.17;17.40;;;;;;;4.23;100.00;101061.94;5256239;28;20032;-70
2021/12/06 00:12:20;;;;;;;22.77;16.92;;;;;;;4.29;100.00;101062.44;5248926;28;20521;-70
2021/12/06 00:14:51;;;;;;;22.63;16.92;;;;;;;4.34;100.00;101069.97;5240777;28;20487;-70
2021/12/06 00:17:23;;;;;;;20.85;16.90;;;;;;;4.29;100.00;101069.38;5240968;28;20026;-70
2021/12/06 00:19:54;;;;;;;19.70;16.58;;;;;;;4.29;100.00;101077.16;5249337;28;20044;-70
2021/12/06 00:22:25;;;;;;;18.95;16.05;;;;;;;4.29;100.00;101079.75;5254854;28;20060;-70
2021/12/06 00:24:57;;;;;;;21.45;17.90;;;;;;;4.33;100.00;101081.25;5261364;28;20412;-70
2021/12/06 00:27:29;;;;;;;21.98;18.63;;;;;;;4.33;100.00;101087.28;5242410;28;20520;-70
2021/12/06 00:30:00;;;;;;;20.42;18.10;;;;;;;4.36;100.00;101087.13;5247922;28;20029;-70
2021/12/06 00:32:31;;;;;;;21.85;18.08;;;;;;;4.48;100.00;101088.19;5240289;28;20029;-70
2021/12/06 00:35:04;;;;;;;21.90;17.70;;;;;;;4.43;100.00;101087.59;5240039;28;20035;-70
2021/12/06 00:37:42;;;;;;;23.42;17.67;;;;;;;4.43;100.00;101092.78;5232490;28;20025;-70
2021/12/06 00:40:14;;;;;;;21.73;17.85;;;;;;;4.38;100.00;101095.63;5260848;28;20025;-70
2021/12/06 00:42:45;;;;;;;23.77;16.77;;;;;;;4.39;100.00;101106.84;5260811;28;20493;-70
2021/12/06 00:45:17;;;;;;;20.25;17.50;;;;;;;4.38;100.00;101111.19;5256967;28;20049;-70
2021/12/06 00:47:48;;;;;;;19.52;17.15;;;;;;;4.44;100.00;101107.44;5248503;28;20311;-70
2021/12/06 00:50:22;;;;;;;20.05;17.95;;;;;;;4.47;100.00;101117.66;5260860;28;20033;-70
2021/12/06 00:52:54;;;;;;;20.98;17.15;;;;;;;4.45;100.00;101123.84;5260484;28;20043;-70
2021/12/06 00:55:26;;;;;;;19.90;17.75;;;;;;;4.52;100.00;101114.81;5259089;28;20029;-70
2021/12/06 00:57:58;;;;;;;20.13;17.85;;;;;;;4.51;100.00;101133.88;5251940;28;20478;-70
2021/12/06 01:00:35;;;;;;;20.95;18.02;;;;;;;4.62;100.00;101131.53;5257521;28;20256;-70
2021/12/06 01:03:10;;;;;;;19.88;17.45;;;;;;;4.62;100.00;101141.91;5250332;28;20125;-70
2021/12/06 01:05:43;;;;;;;20.85;18.63;;;;;;;4.58;100.00;101150.78;5260526;28;20025;-70
2021/12/06 01:08:15;;;;;;;23.57;19.17;;;;;;;4.55;100.00;101145.78;5259995;28;20021;-70
2021/12/06 01:10:48;;;;;;;22.88;19.30;;;;;;;4.46;100.00;101144.50;5258483;28;20057;-70
2021/12/06 01:13:20;;;;;;;21.45;18.98;;;;;;;4.53;100.00;101148.44;5239583;28;20032;-70
2021/12/06 01:15:52;;;;;;;23.13;20.05;;;;;;;4.53;100.00;101147.59;5239416;28;20128;-70
2021/12/06 01:18:24;;;;;;;21.30;18.92;;;;;;;4.56;100.00;101150.03;5244785;28;20107;-70
2021/12/06 01:21:23;;;;;;;25.55;19.85;;;;;;;4.61;100.00;101151.44;5251509;28;20036;-70
2021/12/06 01:23:58;;;;;;;22.98;19.50;;;;;;;4.54;100.00;101154.47;5239211;28;20049;-70
2021/12/06 01:27:03;;;;;;;22.75;19.60;;;;;;;4.59;100.00;101158.50;5241909;28;20036;-70
2021/12/06 01:32:35;;;;;;;21.77;19.15;;;;;;;4.55;100.00;101158.75;5260152;28;20048;-70
2021/12/06 01:40:47;;;;;;;24.48;20.48;;;;;;;4.64;100.00;101158.25;5259764;28;20029;-70
2021/12/06 01:43:18;;;;;;;28.42;21.65;;;;;;;4.64;100.00;101169.44;5259400;28;20470;-70
2021/12/06 01:45:49;;;;;;;24.95;19.75;;;;;;;4.64;100.00;101174.63;5249795;28;20095;-70
2021/12/06 01:48:21;;;;;;;21.70;18.88;;;;;;;4.64;100.00;101179.84;5259556;28;20021;-70
2021/12/06 01:50:52;;;;;;;24.20;19.42;;;;;;;4.66;100.00;101174.56;5259814;28;20355;-70
2021/12/06 01:53:24;;;;;;;24.15;20.60;;;;;;;4.66;100.00;101181.50;5258254;28;20138;-70
2021/12/06 01:55:55;;;;;;;22.27;19.23;;;;;;;4.62;100.00;101181.69;5248095;28;20403;-70
2021/12/06 01:58:26;;;;;;;22.60;19.08;;;;;;;4.66;100.00;101190.16;5248407;28;20116;-70
2021/12/06 02:00:58;;;;;;;22.73;19.85;;;;;;;4.69;100.00;101189.97;5249522;28;20447;-70
2021/12/06 02:03:29;;;;;;;24.05;18.67;;;;;;;4.64;100.00;101187.63;5260109;28;20048;-70
2021/12/06 02:06:01;;;;;;;23.63;18.85;;;;;;;4.67;100.00;101191.81;5260623;28;20033;-70
2021/12/06 02:08:33;;;;;;;23.85;20.25;;;;;;;4.65;100.00;101183.25;5252994;28;20541;-70
2021/12/06 02:11:05;;;;;;;24.13;19.33;;;;;;;4.67;100.00;101186.63;5241833;28;20037;-70
2021/12/06 02:13:56;;;;;;;23.67;18.83;;;;;;;4.68;100.00;101187.47;5239810;28;20017;-71
2021/12/06 02:16:40;;;;;;;25.38;19.45;;;;;;;4.71;100.00;101189.88;5246261;28;20390;-70
2021/12/06 02:19:18;;;;;;;24.55;19.42;;;;;;;4.69;100.00;101189.97;5252004;28;20511;-70
2021/12/06 02:21:49;;;;;;;23.67;19.63;;;;;;;4.68;100.00;101192.66;5257085;28;20025;-70
2021/12/06 02:24:20;;;;;;;25.55;20.73;;;;;;;4.71;100.00;101193.31;5252188;28;20040;-70
2021/12/06 02:26:53;;;;;;;22.45;19.23;;;;;;;4.70;100.00;101202.03;5252022;28;20036;-70
2021/12/06 02:29:25;;;;;;;22.75;20.17;;;;;;;4.71;100.00;101197.69;5258022;28;20027;-70
2021/12/06 02:31:57;;;;;;;22.90;19.27;;;;;;;4.69;100.00;101204.69;5252245;28;20026;-70
2021/12/06 02:34:28;;;;;;;23.65;18.83;;;;;;;4.69;100.00;101209.88;5251567;28;20021;-70
2021/12/06 02:37:00;;;;;;;23.63;19.17;;;;;;;4.68;100.00;101209.06;5258118;28;20108;-70
2021/12/06 02:39:31;;;;;;;23.35;19.10;;;;;;;4.67;100.00;101206.56;5252644;28;20090;-70
2021/12/06 02:42:04;;;;;;;22.45;18.40;;;;;;;4.64;100.00;101213.56;5258868;28;20458;-70
2021/12/06 02:44:35;;;;;;;25.50;19.48;;;;;;;4.67;100.00;101216.94;5248118;28;20053;-70
2021/12/06 02:47:07;;;;;;;30.58;20.23;;;;;;;4.64;100.00;101223.13;5259490;28;20147;-70
2021/12/06 02:49:39;;;;;;;24.85;20.42;;;;;;;4.71;100.00;101228.81;5260358;28;20040;-70
2021/12/06 02:52:12;;;;;;;35.67;20.75;;;;;;;4.67;100.00;101233.34;5249143;28;20695;-70
2021/12/06 02:54:43;;;;;;;26.58;21.40;;;;;;;4.68;100.00;101224.63;5251735;28;20111;-70
2021/12/06 02:59:47;;;;;;;25.27;19.65;;;;;;;4.73;100.00;101230.38;5255624;28;20033;-70
2021/12/06 03:02:20;;;;;;;22.15;18.55;;;;;;;4.80;100.00;101236.09;5243747;28;20025;-70
2021/12/06 03:04:52;;;;;;;25.42;20.17;;;;;;;4.83;100.00;101233.34;5242649;28;20076;-70
2021/12/06 03:07:25;;;;;;;22.23;19.60;;;;;;;4.76;100.00;101235.41;5239796;28;20498;-70
2021/12/06 03:09:57;;;;;;;26.42;19.25;;;;;;;4.77;100.00;101229.34;5253636;28;20074;-70
2021/12/06 03:12:28;;;;;;;26.10;20.30;;;;;;;4.76;100.00;101232.00;5251939;28;20029;-70
2021/12/06 03:15:02;;;;;;;22.88;19.88;;;;;;;4.78;100.00;101236.19;5260698;28;20044;-70
2021/12/06 03:17:34;;;;;;;24.52;20.52;;;;;;;4.76;100.00;101238.03;5261052;28;20529;-70
2021/12/06 03:20:09;;;;;;;27.55;20.77;;;;;;;4.77;100.00;101233.66;5244760;28;20049;-69
2021/12/06 03:22:42;;;;;;;25.00;20.58;;;;;;;4.78;100.00;101235.34;5255155;28;20028;-70
2021/12/06 03:25:17;;;;;;;25.70;21.77;;;;;;;4.90;100.00;101239.88;5260570;28;20067;-70
2021/12/06 03:27:49;;;;;;;24.63;20.75;;;;;;;4.86;100.00;101241.78;5258873;28;20025;-70
2021/12/06 03:30:21;;;;;;;23.80;20.13;;;;;;;4.84;100.00;101240.19;5250999;28;20025;-70
2021/12/06 03:32:52;;;;;;;24.85;20.20;;;;;;;4.84;100.00;101235.84;5240578;28;20017;-70
2021/12/06 03:35:23;;;;;;;24.67;20.55;;;;;;;4.84;100.00;101235.84;5256770;28;20043;-70
2021/12/06 03:37:55;;;;;;;26.13;20.95;;;;;;;4.81;100.00;101235.16;5264694;28;20021;-70
2021/12/06 03:40:26;;;;;;;26.85;22.30;;;;;;;4.83;100.00;101238.53;5258799;28;20039;-70
2021/12/06 03:42:58;;;;;;;24.30;20.15;;;;;;;4.82;100.00;101240.28;5253188;28;20025;-70
2021/12/06 03:45:29;;;;;;;26.08;21.75;;;;;;;4.81;100.00;101243.81;5260380;28;20088;-70
2021/12/06 03:48:00;;;;;;;28.75;21.48;;;;;;;4.82;100.00;101247.25;5246384;28;20112;-70
2021/12/06 03:50:32;;;;;;;29.25;21.23;;;;;;;4.81;100.00;101246.41;5244066;28;20446;-70
2021/12/06 03:53:04;;;;;;;25.98;21.25;;;;;;;4.78;100.00;101236.19;5243177;28;20025;-70
2021/12/06 03:55:35;;;;;;;25.80;21.80;;;;;;;4.82;100.00;101240.28;5251993;28;20023;-70
2021/12/06 03:58:07;;;;;;;27.75;23.25;;;;;;;4.78;100.00;101238.78;5263786;28;20067;-70
2021/12/06 04:00:38;;;;;;;27.80;22.75;;;;;;;4.81;100.00;101240.34;5265454;28;20055;-70
2021/12/06 04:03:10;;;;;;;23.75;20.30;;;;;;;4.83;100.00;101246.31;5261989;28;20437;-70
2021/12/06 04:05:41;;;;;;;25.00;20.52;;;;;;;4.83;100.00;101246.31;5256539;28;20374;-70
2021/12/06 04:08:13;;;;;;;24.45;21.15;;;;;;;4.82;100.00;101250.69;5264420;28;20029;-70
2021/12/06 04:10:45;;;;;;;26.02;20.83;;;;;;;4.77;100.00;101254.41;5257832;28;20026;-70
2021/12/06 04:13:17;;;;;;;29.42;21.63;;;;;;;4.80;100.00;101260.28;5255383;28;20471;-70
2021/12/06 04:15:48;;;;;;;29.75;21.98;;;;;;;4.75;100.00;101256.28;5264307;28;20104;-70
2021/12/06 04:18:20;;;;;;;24.95;21.23;;;;;;;4.79;100.00;101252.59;5264689;28;20585;-70
2021/12/06 04:20:52;;;;;;;27.23;22.52;;;;;;;4.76;100.00;101253.59;5257875;28;20063;-70
2021/12/06 04:23:24;;;;;;;27.98;22.40;;;;;;;4.78;100.00;101251.75;5259044;28;20025;-70
2021/12/06 04:25:55;;;;;;;26.55;22.80;;;;;;;4.75;100.00;101251.09;5246711;28;20025;-70
2021/12/06 04:28:29;;;;;;;28.25;22.45;;;;;;;4.73;100.00;101252.91;5258961;28;20032;-70
2021/12/06 04:31:03;;;;;;;31.00;23.23;;;;;;;4.75;100.00;101256.28;5251097;28;20079;-70
2021/12/06 04:33:34;;;;;;;31.08;23.25;;;;;;;4.68;100.00;101255.75;5243985;28;20056;-70
2021/12/06 04:36:06;;;;;;;28.20;23.35;;;;;;;4.67;100.00;101254.09;5262247;28;20021;-70
2021/12/06 04:38:37;;;;;;;27.80;22.35;;;;;;;4.64;100.00;101259.44;5263255;28;20056;-70
2021/12/06 04:41:08;;;;;;;26.35;21.48;;;;;;;4.60;100.00;101270.91;5260871;28;20039;-70
2021/12/06 04:43:40;;;;;;;27.88;21.88;;;;;;;4.56;100.00;101267.63;5246884;28;20076;-70
2021/12/06 04:46:11;;;;;;;25.83;21.55;;;;;;;4.53;100.00;101274.75;5253819;28;20144;-70
2021/12/06 04:48:43;;;;;;;28.02;21.75;;;;;;;4.45;100.00;101269.13;5263583;28;20517;-70
2021/12/06 04:51:14;;;;;;;24.23;20.33;;;;;;;4.42;100.00;101270.13;5260981;28;20632;-70
2021/12/06 04:53:47;;;;;;;27.42;20.05;;;;;;;4.35;100.00;101274.78;5255240;28;20105;-70
2021/12/06 04:56:32;;;;;;;22.38;18.73;;;;;;;4.58;100.00;101281.38;5262701;28;20071;-70
2021/12/06 04:59:22;;;;;;;23.58;18.98;;;;;;;4.27;100.00;101278.69;5262203;28;20547;-70
2021/12/06 05:01:56;;;;;;;21.60;18.60;;;;;;;4.18;100.00;101277.41;5249711;28;20025;-70
2021/12/06 05:04:31;;;;;;;23.95;19.00;;;;;;;4.13;100.00;101288.03;5255499;28;20053;-70
2021/12/06 05:07:16;;;;;;;25.15;20.27;;;;;;;4.20;100.00;101274.72;5247222;28;20031;-70
2021/12/06 05:09:49;;;;;;;22.90;20.08;;;;;;;3.96;100.00;101280.25;5248714;28;20068;-70
2021/12/06 05:12:25;;;;;;;24.10;19.65;;;;;;;3.94;100.00;101276.03;5239885;28;20028;-70
2021/12/06 05:14:57;;;;;;;24.45;19.88;;;;;;;3.87;100.00;101285.91;5229310;28;20050;-70
2021/12/06 05:17:29;;;;;;;26.05;20.60;;;;;;;3.79;100.00;101295.78;5255400;28;20051;-70
2021/12/06 05:20:01;;;;;;;25.63;20.42;;;;;;;3.78;100.00;101294.13;5230088;28;20025;-70
2021/12/06 05:22:34;;;;;;;26.85;18.80;;;;;;;3.65;100.00;101293.88;5247951;28;20621;-70
2021/12/06 05:25:06;;;;;;;30.50;19.80;;;;;;;3.64;100.00;101302.59;5260366;28;20526;-70
2021/12/06 05:27:37;;;;;;;80.80;23.08;;;;;;;3.59;100.00;101305.38;5254925;28;20040;-70
2021/12/06 05:30:12;;;;;;;86.10;22.10;;;;;;;3.71;100.00;101301.34;5257376;28;20033;-70
2021/12/06 05:32:44;;;;;;;242.43;27.05;;;;;;;3.57;100.00;101294.25;5259712;28;20025;-70
2021/12/06 05:35:15;;;;;;;161.00;24.05;;;;;;;3.63;100.00;101295.72;5254231;28;20021;-70
2021/12/06 05:37:50;;;;;;;151.65;26.25;;;;;;;3.66;100.00;101292.97;5251409;28;20627;-70
2021/12/06 05:40:27;;;;;;;110.15;24.50;;;;;;;3.68;100.00;101292.91;5260143;28;20025;-70
2021/12/06 05:43:00;;;;;;;155.77;23.27;;;;;;;3.56;100.00;101310.72;5254869;28;20029;-70
2021/12/06 05:45:33;;;;;;;207.10;23.30;;;;;;;3.57;100.00;101299.44;5251121;28;20074;-70
2021/12/06 05:48:05;;;;;;;291.53;27.13;;;;;;;3.56;100.00;101299.50;5259973;28;20044;-70
2021/12/06 05:50:36;;;;;;;298.88;28.63;;;;;;;3.39;100.00;101295.97;5258723;28;20667;-70
2021/12/06 05:53:07;;;;;;;300.70;29.75;;;;;;;3.38;100.00;101302.06;5256579;28;20029;-70
2021/12/06 05:55:40;;;;;;;272.33;29.23;;;;;;;3.51;100.00;101299.72;5252297;28;20024;-70
2021/12/06 05:58:14;;;;;;;261.10;27.63;;;;;;;3.59;100.00;101305.38;5238100;28;20120;-70
2021/12/06 06:00:46;;;;;;;266.65;29.42;;;;;;;3.59;100.00;101305.38;5239044;28;20403;-70
2021/12/06 06:03:17;;;;;;;245.77;28.23;;;;;;;3.61;100.00;101302.72;5253687;28;20040;-70
2021/12/06 06:05:48;;;;;;;197.20;27.35;;;;;;;3.63;100.00;101313.84;5251163;28;20020;-70
2021/12/06 06:08:20;;;;;;;276.90;31.05;;;;;;;3.62;100.00;101307.81;5238711;28;20029;-70
2021/12/06 06:10:51;;;;;;;142.30;25.75;;;;;;;3.67;100.00;101317.97;5250161;28;20109;-70
2021/12/06 06:13:23;;;;;;;212.63;28.45;;;;;;;3.66;100.00;101324.06;5246407;28;20063;-70
2021/12/06 06:15:55;;;;;;;157.75;28.02;;;;;;;3.66;100.00;101335.25;5238961;28;20024;-70
2021/12/06 06:18:27;;;;;;;212.53;28.23;;;;;;;3.71;100.00;101324.66;5244009;28;20025;-70
2021/12/06 06:20:58;;;;;;;158.73;26.95;;;;;;;3.70;100.00;101332.53;5250879;28;20036;-70
2021/12/06 06:23:29;;;;;;;97.88;23.83;;;;;;;3.75;100.00;101340.91;5242008;28;20033;-70
2021/12/06 06:26:01;;;;;;;191.73;27.45;;;;;;;3.72;100.00;101341.09;5242062;28;20029;-70
2021/12/06 06:28:32;;;;;;;220.80;29.15;;;;;;;3.72;100.00;101349.69;5249374;28;20053;-70
2021/12/06 06:31:04;;;;;;;140.35;24.77;;;;;;;3.76;100.00;101332.25;5247116;28;20060;-70
2021/12/06 06:33:35;;;;;;;184.60;27.52;;;;;;;3.78;100.00;101346.78;5244422;28;20534;-70
2021/12/06 06:36:07;;;;;;;96.18;23.17;;;;;;;3.79;100.00;101337.25;5251552;28;20028;-70
2021/12/06 06:38:38;;;;;;;115.47;24.58;;;;;;;3.85;100.00;101340.41;5259619;28;20024;-70
2021/12/06 06:41:10;;;;;;;172.70;27.08;;;;;;;3.87;100.00;101343.75;5260100;28;20037;-70
2021/12/06 06:43:41;;;;;;;226.20;28.27;;;;;;;3.86;100.00;101336.03;5250814;28;20052;-70
2021/12/06 06:46:13;;;;;;;193.80;28.00;;;;;;;3.86;100.00;101336.03;5258716;28;20439;-70
2021/12/06 06:48:44;;;;;;;243.25;28.92;;;;;;;3.84;100.00;101346.50;5259622;28;20094;-70
2021/12/06 06:51:15;;;;;;;259.17;31.83;;;;;;;3.82;100.00;101340.53;5257232;28;20033;-70
2021/12/06 06:53:47;;;;;;;238.77;28.42;;;;;;;3.80;100.00;101333.78;5246801;28;20080;-70
2021/12/06 06:56:18;;;;;;;200.30;29.73;;;;;;;3.77;100.00;101331.31;5259818;28;20028;-70
2021/12/06 06:58:50;;;;;;;161.65;28.77;;;;;;;3.75;100.00;101331.41;5259996;28;20029;-70
2021/12/06 07:01:24;;;;;;;191.77;28.33;;;;;;;3.89;100.00;101343.69;5254236;28;20017;-70
2021/12/06 07:03:55;;;;;;;250.45;34.20;;;;;;;3.82;100.00;101340.53;5249910;28;20036;-71
2021/12/06 07:06:28;;;;;;;210.02;29.38;;;;;;;3.90;100.00;101347.94;5247656;28;20032;-70
2021/12/06 07:08:59;;;;;;;155.38;28.85;;;;;;;3.90;100.00;101342.75;5249952;28;20710;-70
2021/12/06 07:11:31;;;;;;;199.63;28.55;;;;;;;3.91;100.00;101341.88;5260611;28;20037;-70
2021/12/06 07:14:03;;;;;;;103.32;26.58;;;;;;;3.93;100.00;101341.78;5260978;28;20033;-70
2021/12/06 07:16:34;;;;;;;170.13;29.13;;;;;;;3.96;100.00;101354.59;5257445;28;20072;-70
2021/12/06 07:19:06;;;;;;;136.27;28.70;;;;;;;3.94;100.00;101344.31;5258198;28;20032;-70
2021/12/06 07:21:37;;;;;;;144.50;30.90;;;;;;;4.01;100.00;101357.78;5250730;28;20037;-70
2021/12/06 07:24:08;;;;;;;171.90;30.38;;;;;;;4.03;100.00;101363.75;5261522;28;20068;-71
2021/12/06 07:26:40;;;;;;;100.10;28.35;;;;;;;4.07;100.00;101368.69;5255107;28;20490;-70
2021/12/06 07:29:11;;;;;;;74.18;25.95;;;;;;;4.08;100.00;101364.34;5261359;28;20106;-70
2021/12/06 07:31:43;;;;;;;100.38;28.02;;;;;;;4.12;100.00;101369.31;5256472;28;20033;-71
2021/12/06 07:34:14;;;;;;;94.93;26.48;;;;;;;4.15;100.00;101374.34;5254496;28;20497;-74
2021/12/06 07:36:45;;;;;;;63.28;26.20;;;;;;;4.20;100.00;101373.28;5257619;28;20025;-72
2021/12/06 07:39:17;;;;;;;55.88;25.85;;;;;;;4.20;100.00;101381.06;5254425;28;20026;-72
2021/12/06 07:41:48;;;;;;;46.38;24.67;;;;;;;4.25;100.00;101381.69;5258459;28;20025;-70
2021/12/06 07:44:20;;;;;;;41.75;25.92;;;;;;;4.30;100.00;101377.09;5253827;28;20045;-70
2021/12/06 07:46:52;;;;;;;49.03;26.33;;;;;;;4.31;100.00;101371.81;5265442;28;20032;-70
2021/12/06 07:49:23;;;;;;;42.55;26.17;;;;;;;4.31;100.00;101361.44;5247237;28;20129;-70
2021/12/06 07:51:54;;;;;;;38.88;26.45;;;;;;;4.33;100.00;101361.38;5247315;28;20047;-70
2021/12/06 07:54:26;;;;;;;47.28;27.63;;;;;;;4.37;100.00;101355.13;5245299;28;20056;-70
2021/12/06 07:56:58;;;;;;;34.03;25.63;;;;;;;4.42;100.00;101358.31;5245329;28;20049;-70
2021/12/06 07:59:30;;;;;;;40.35;28.95;;;;;;;4.42;100.00;101350.53;5245784;28;20033;-70
2021/12/06 08:02:03;;;;;;;53.72;32.58;;;;;;;4.41;100.00;101348.03;5246496;28;20383;-71
2021/12/06 08:04:37;;;;;;;70.72;35.78;;;;;;;4.41;100.00;101345.44;5256791;28;20028;-70
2021/12/06 08:07:08;;;;;;;73.93;36.45;;;;;;;4.38;100.00;101347.25;5262546;28;20028;-70
2021/12/06 08:09:40;;;;;;;77.95;37.50;;;;;;;4.38;100.00;101339.47;5261163;28;20017;-70
2021/12/06 08:12:11;;;;;;;79.03;37.30;;;;;;;4.42;100.00;101349.69;5253968;28;20040;-70
2021/12/06 08:14:42;;;;;;;70.50;35.95;;;;;;;4.40;100.00;101349.78;5253118;28;20035;-70
2021/12/06 08:17:15;;;;;;;75.70;36.30;;;;;;;4.42;100.00;101342.75;5265155;28;20020;-70
2021/12/06 08:19:46;;;;;;;96.80;37.95;;;;;;;4.40;100.00;101347.19;5264004;28;20096;-70
2021/12/06 08:22:18;;;;;;;72.38;37.33;;;;;;;4.39;100.00;101346.38;5234518;28;20116;-70
2021/12/06 08:24:49;;;;;;;72.03;37.42;;;;;;;4.41;100.00;101346.28;5237786;28;20021;-71
2021/12/06 08:27:21;;;;;;;55.97;36.72;;;;;;;4.45;100.00;101345.19;5255156;28;20047;-71
2021/12/06 08:29:52;;;;;;;63.45;36.63;;;;;;;4.45;100.00;101342.59;5236481;28;20029;-72
2021/12/06 08:32:23;;;;;;;78.70;39.50;;;;;;;4.42;100.00;101350.53;5254503;28;20020;-72
2021/12/06 08:34:55;;;;;;;60.05;37.22;;;;;;;4.42;100.00;101349.69;5256415;28;20032;-71
2021/12/06 08:37:26;;;;;;;56.72;37.28;;;;;;;4.49;100.00;101361.44;5253572;28;20032;-72
2021/12/06 08:39:58;;;;;;;57.95;36.45;;;;;;;4.47;100.00;101371.03;5249005;28;20546;-72
2021/12/06 08:42:29;;;;;;;74.03;37.65;;;;;;;4.48;100.00;101373.59;5255626;28;20490;-70
2021/12/06 08:45:01;;;;;;;62.33;37.70;;;;;;;4.47;100.00;101382.28;5246121;28;20040;-70
2021/12/06 08:47:32;;;;;;;62.85;37.05;;;;;;;4.46;100.00;101387.53;5255969;28;20319;-70
2021/12/06 08:50:05;;;;;;;62.50;37.13;;;;;;;4.56;100.00;101384.41;5250606;28;20021;-71
2021/12/06 08:52:37;;;;;;;62.92;37.67;;;;;;;4.52;100.00;101371.69;5249254;28;20025;-71
2021/12/06 08:55:09;;;;;;;60.78;37.25;;;;;;;4.55;100.00;101382.75;5247183;28;20036;-70
2021/12/06 08:57:43;;;;;;;61.50;36.83;;;;;;;4.63;100.00;101390.13;5252490;28;20095;-71
2021/12/06 09:00:19;;;;;;;58.65;37.72;;;;;;;4.67;100.00;101396.00;5253033;28;20025;-70
2021/12/06 09:02:51;;;;;;;55.35;35.53;;;;;;;4.62;100.00;101391.03;5251191;28;20048;-71
2021/12/06 09:05:28;;;;;;;62.33;37.40;;;;;;;4.68;100.00;101397.69;5255510;28;20029;-71
2021/12/06 09:08:00;;;;;;;67.00;32.97;;;;;;;4.57;100.00;101401.66;5254582;28;20536;-73
2021/12/06 09:10:32;;;;;;;61.75;33.85;;;;;;;4.51;100.00;101399.38;5249996;28;20032;-72
2021/12/06 09:13:05;;;;;;;56.65;32.70;;;;;;;4.49;100.00;101401.19;5250984;28;20065;-71
2021/12/06 09:15:36;;;;;;;50.90;32.92;;;;;;;4.53;100.00;101400.13;5250874;28;20020;-74
2021/12/06 09:18:08;;;;;;;52.58;31.70;;;;;;;4.52;100.00;101401.06;5252086;28;20374;-73
2021/12/06 09:20:43;;;;;;;58.97;32.47;;;;;;;4.59;100.00;101404.19;5251980;28;20032;-71
2021/12/06 09:23:15;;;;;;;67.85;32.92;;;;;;;4.49;100.00;101390.00;5255623;28;20435;-71
2021/12/06 09:25:47;;;;;;;68.43;32.00;;;;;;;4.50;100.00;101392.50;5254853;28;20494;-71
2021/12/06 09:28:18;;;;;;;57.13;33.63;;;;;;;4.51;100.00;101395.91;5255606;28;20063;-72
2021/12/06 09:30:50;;;;;;;57.08;33.20;;;;;;;4.59;100.00;101393.81;5255249;28;20025;-70
2021/12/06 09:33:22;;;;;;;57.67;34.08;;;;;;;4.57;100.00;101393.84;5248605;28;20025;-70
2021/12/06 09:35:57;;;;;;;61.30;34.47;;;;;;;4.64;100.00;101403.00;5249653;28;20455;-71
2021/12/06 09:38:39;;;;;;;60.60;34.00;;;;;;;4.64;100.00;101391.81;5250169;28;20406;-72
2021/12/06 09:41:22;;;;;;;69.72;35.10;;;;;;;4.67;100.00;101393.41;5231826;28;20029;-73
2021/12/06 09:43:59;;;;;;;73.65;37.60;;;;;;;4.63;100.00;101403.94;5224064;28;20443;-71
2021/12/06 09:46:35;;;;;;;94.22;39.65;;;;;;;4.47;100.00;101394.41;5237626;28;20022;-70
2021/12/06 09:49:13;;;;;;;84.15;42.38;;;;;;;4.59;100.00;101399.81;5245405;28;20021;-71
2021/12/06 09:51:51;;;;;;;88.63;40.45;;;;;;;4.60;100.00;101403.25;5245520;28;20028;-70
2021/12/06 09:54:26;;;;;;;100.95;43.22;;;;;;;4.61;100.00;101405.75;5239429;28;20017;-71
2021/12/06 09:56:58;;;;;;;121.53;44.22;;;;;;;4.55;100.00;101408.69;5239292;28;20072;-72
2021/12/06 09:59:31;;;;;;;115.82;43.65;;;;;;;4.50;100.00;101408.06;5244974;28;20013;-71
2021/12/06 10:02:09;;;;;;;102.78;44.35;;;;;;;4.63;100.00;101411.72;5231107;28;20024;-71
2021/12/06 10:04:48;;;;;;;142.52;46.17;;;;;;;4.60;100.00;101393.72;5245861;28;20029;-71
2021/12/06 10:07:22;;;;;;;151.40;46.60;;;;;;;4.54;100.00;101394.00;5244848;28;20017;-71
2021/12/06 10:09:54;;;;;;;147.02;45.90;;;;;;;4.51;100.00;101383.81;5244491;28;20030;-71
2021/12/06 10:12:27;;;;;;;113.30;44.88;;;;;;;4.57;100.00;101387.84;5250800;28;20024;-71
2021/12/06 10:15:02;;;;;;;115.43;44.58;;;;;;;4.60;100.00;101396.31;5234376;28;20132;-72
2021/12/06 10:17:34;;;;;;;112.50;45.22;;;;;;;4.61;100.00;101373.78;5234509;28;20394;-71
2021/12/06 10:20:07;;;;;;;98.82;42.60;;;;;;;4.60;100.00;101367.75;5236324;28;20025;-71
2021/12/06 10:22:39;;;;;;;102.43;41.20;;;;;;;4.58;100.00;101368.75;5235808;28;20164;-72
2021/12/06 10:25:10;;;;;;;101.03;41.92;;;;;;;4.61;100.00;101366.00;5228551;28;20104;-71
2021/12/06 10:28:04;;;;;;;116.78;41.53;;;;;;;4.71;100.00;101356.00;5237261;28;20097;-71
2021/12/06 10:30:42;;;;;;;96.97;39.92;;;;;;;4.68;100.00;101351.78;5243283;28;20044;-72
2021/12/06 10:33:20;;;;;;;87.55;38.40;;;;;;;4.71;100.00;101358.59;5234841;28;20442;-72
2021/12/06 10:35:54;;;;;;;84.88;37.60;;;;;;;4.68;100.00;101375.16;5241528;28;20040;-73
2021/12/06 10:38:31;;;;;;;80.68;39.75;;;;;;;4.67;100.00;101363.09;5232481;28;20495;-72
2021/12/06 10:41:07;;;;;;;77.22;37.25;;;;;;;4.72;100.00;101365.44;5250695;28;20053;-71
2021/12/06 10:43:40;;;;;;;70.13;34.40;;;;;;;4.66;100.00;101357.97;5240164;28;20073;-71
2021/12/06 10:46:16;;;;;;;62.17;33.50;;;;;;;4.68;100.00;101348.38;5248934;28;20037;-73
2021/12/06 10:48:47;;;;;;;62.25;34.00;;;;;;;4.54;100.00;101346.47;5256780;28;20127;-71
2021/12/06 10:51:20;;;;;;;63.40;34.35;;;;;;;4.46;100.00;101336.47;5244389;28;20112;-71
2021/12/06 10:54:01;;;;;;;55.58;31.80;;;;;;;4.54;100.00;101334.34;5244910;28;20056;-72
2021/12/06 10:56:43;;;;;;;56.72;33.33;;;;;;;4.55;100.00;101319.63;5253578;28;20012;-71
2021/12/06 10:59:19;;;;;;;58.47;32.38;;;;;;;4.45;100.00;101305.44;5247458;28;20378;-71
2021/12/06 11:01:55;;;;;;;53.70;31.67;;;;;;;4.50;100.00;101306.88;5243512;28;20112;-72
2021/12/06 11:04:27;;;;;;;53.95;30.60;;;;;;;4.36;100.00;101301.56;5252462;28;20020;-71
2021/12/06 11:07:06;;;;;;;46.60;28.25;;;;;;;4.47;100.00;101309.66;5249519;28;20028;-71
2021/12/06 11:09:41;;;;;;;49.42;28.95;;;;;;;4.43;100.00;101307.25;5248023;28;20066;-71
2021/12/06 11:12:19;;;;;;;50.55;29.83;;;;;;;4.45;100.00;101305.44;5245777;28;20056;-73
2021/12/06 11:14:51;;;;;;;50.58;30.58;;;;;;;4.29;100.00;101301.03;5232791;28;20025;-72
2021/12/06 11:17:23;;;;;;;52.20;28.15;;;;;;;4.29;100.00;101292.44;5245422;28;20039;-71
2021/12/06 11:19:54;;;;;;;48.95;26.00;;;;;;;4.20;100.00;101287.69;5242894;28;20129;-71
2021/12/06 11:22:26;;;;;;;45.38;25.25;;;;;;;4.17;100.00;101278.34;5249759;28;20374;-71
2021/12/06 11:24:58;;;;;;;49.08;25.73;;;;;;;4.15;100.00;101268.03;5244099;28;20025;-70
2021/12/06 11:27:37;;;;;;;47.05;26.02;;;;;;;4.27;100.00;101269.16;5252728;28;20028;-72
2021/12/06 11:30:13;;;;;;;36.35;22.00;;;;;;;4.16;100.00;101266.28;5258628;28;20024;-70
2021/12/06 11:32:48;;;;;;;32.08;21.42;;;;;;;4.08;100.00;101258.88;5222580;28;20028;-70
2021/12/06 11:35:22;;;;;;;41.03;23.17;;;;;;;4.04;100.00;101259.97;5245148;28;20498;-71
2021/12/06 11:37:59;;;;;;;36.85;22.48;;;;;;;4.07;100.00;101267.59;5252440;28;20043;-72
2021/12/06 11:40:34;;;;;;;33.72;21.45;;;;;;;4.02;100.00;101261.81;5250451;28;20433;-71
2021/12/06 11:43:11;;;;;;;33.80;20.60;;;;;;;4.03;100.00;101258.28;5242952;28;20693;-72
2021/12/06 11:45:50;;;;;;;29.70;19.65;;;;;;;4.01;100.00;101248.91;5241156;28;20028;-71